sensor_id;sensor_type;location;lat;lon;timestamp;P1;durP1;ratioP1;P2;durP2;ratioP2
77518;SDS011;66629;47.346;19.038;2023-03-20T00:00:28;17.42;;;11.02;;
77518;SDS011;66629;47.346;19.038;2023-03-20T00:03:02;17.63;;;11.30;;
77518;SDS011;66629;47.346;19.038;2023-03-20T00:05:28;16.73;;;10.82;;
77518;SDS011;66629;47.346;19.038;2023-03-20T00:07:55;19.10;;;11.45;;
77518;SDS011;66629;47.346;19.038;2023-03-20T00:10:24;19.90;;;10.95;;
77518;SDS011;66629;47.346;19.038;2023-03-20T00:12:55;20.92;;;11.68;;
77518;SDS011;66629;47.346;19.038;2023-03-20T00:15:25;15.15;;;10.68;;
77518;SDS011;66629;47.346;19.038;2023-03-20T00:18:00;19.95;;;12.30;;
77518;SDS011;66629;47.346;19.038;2023-03-20T00:20:25;18.33;;;11.55;;
77518;SDS011;66629;47.346;19.038;2023-03-20T00:22:51;18.25;;;11.70;;
77518;SDS011;66629;47.346;19.038;2023-03-20T00:25:21;16.88;;;11.18;;
77518;SDS011;66629;47.346;19.038;2023-03-20T00:27:49;16.92;;;11.18;;
77518;SDS011;66629;47.346;19.038;2023-03-20T00:30:15;14.32;;;10.43;;
77518;SDS011;66629;47.346;19.038;2023-03-20T00:32:46;16.48;;;10.50;;
77518;SDS011;66629;47.346;19.038;2023-03-20T00:35:19;18.00;;;10.30;;
77518;SDS011;66629;47.346;19.038;2023-03-20T00:37:52;16.35;;;10.85;;
77518;SDS011;66629;47.346;19.038;2023-03-20T00:40:19;17.30;;;10.50;;
77518;SDS011;66629;47.346;19.038;2023-03-20T00:42:45;18.48;;;10.20;;
77518;SDS011;66629;47.346;19.038;2023-03-20T00:45:16;17.42;;;10.60;;
77518;SDS011;66629;47.346;19.038;2023-03-20T00:47:43;16.45;;;10.80;;
77518;SDS011;66629;47.346;19.038;2023-03-20T00:50:23;18.27;;;11.07;;
77518;SDS011;66629;47.346;19.038;2023-03-20T00:52:50;17.00;;;10.52;;
77518;SDS011;66629;47.346;19.038;2023-03-20T00:55:17;14.27;;;10.05;;
77518;SDS011;66629;47.346;19.038;2023-03-20T00:57:45;16.42;;;9.98;;
77518;SDS011;66629;47.346;19.038;2023-03-20T01:03:18;14.65;;;9.77;;
77518;SDS011;66629;47.346;19.038;2023-03-20T01:05:46;14.82;;;10.10;;
77518;SDS011;66629;47.346;19.038;2023-03-20T01:08:13;16.85;;;11.00;;
77518;SDS011;66629;47.346;19.038;2023-03-20T01:10:41;17.77;;;10.95;;
77518;SDS011;66629;47.346;19.038;2023-03-20T01:13:12;15.65;;;10.75;;
77518;SDS011;66629;47.346;19.038;2023-03-20T01:15:59;17.27;;;10.75;;
77518;SDS011;66629;47.346;19.038;2023-03-20T01:18:25;16.88;;;10.57;;
77518;SDS011;66629;47.346;19.038;2023-03-20T01:20:51;15.48;;;10.50;;
77518;SDS011;66629;47.346;19.038;2023-03-20T01:23:18;16.75;;;11.05;;
77518;SDS011;66629;47.346;19.038;2023-03-20T01:25:44;19.20;;;11.35;;
77518;SDS011;66629;47.346;19.038;2023-03-20T01:28:17;21.17;;;11.23;;
77518;SDS011;66629;47.346;19.038;2023-03-20T01:30:47;17.48;;;10.88;;
77518;SDS011;66629;47.346;19.038;2023-03-20T01:33:15;19.00;;;11.52;;
77518;SDS011;66629;47.346;19.038;2023-03-20T01:35:46;17.02;;;11.27;;
77518;SDS011;66629;47.346;19.038;2023-03-20T01:38:14;16.77;;;11.10;;
77518;SDS011;66629;47.346;19.038;2023-03-20T01:40:55;19.05;;;11.80;;
77518;SDS011;66629;47.346;19.038;2023-03-20T01:43:22;19.05;;;11.45;;
77518;SDS011;66629;47.346;19.038;2023-03-20T01:45:51;17.30;;;11.23;;
77518;SDS011;66629;47.346;19.038;2023-03-20T01:48:18;17.95;;;11.40;;
77518;SDS011;66629;47.346;19.038;2023-03-20T01:50:44;19.50;;;11.15;;
77518;SDS011;66629;47.346;19.038;2023-03-20T01:53:18;15.82;;;11.48;;
77518;SDS011;66629;47.346;19.038;2023-03-20T01:55:47;18.38;;;11.93;;
77518;SDS011;66629;47.346;19.038;2023-03-20T01:58:17;23.48;;;12.60;;
77518;SDS011;66629;47.346;19.038;2023-03-20T02:00:45;18.00;;;11.55;;
77518;SDS011;66629;47.346;19.038;2023-03-20T02:03:12;17.73;;;11.75;;
77518;SDS011;66629;47.346;19.038;2023-03-20T02:05:39;18.33;;;11.75;;
77518;SDS011;66629;47.346;19.038;2023-03-20T02:08:11;18.20;;;12.00;;
77518;SDS011;66629;47.346;19.038;2023-03-20T02:10:40;18.73;;;11.27;;
77518;SDS011;66629;47.346;19.038;2023-03-20T02:13:05;19.10;;;12.05;;
77518;SDS011;66629;47.346;19.038;2023-03-20T02:15:32;17.98;;;11.45;;
77518;SDS011;66629;47.346;19.038;2023-03-20T02:17:58;19.25;;;11.88;;
77518;SDS011;66629;47.346;19.038;2023-03-20T02:20:30;19.65;;;12.57;;
77518;SDS011;66629;47.346;19.038;2023-03-20T02:31:41;16.60;;;11.45;;
77518;SDS011;66629;47.346;19.038;2023-03-20T02:34:37;19.15;;;12.05;;
77518;SDS011;66629;47.346;19.038;2023-03-20T02:37:37;17.27;;;11.18;;
77518;SDS011;66629;47.346;19.038;2023-03-20T02:45:52;23.42;;;15.43;;
77518;SDS011;66629;47.346;19.038;2023-03-20T02:48:38;18.92;;;12.30;;
77518;SDS011;66629;47.346;19.038;2023-03-20T02:59:19;19.17;;;11.55;;
77518;SDS011;66629;47.346;19.038;2023-03-20T03:02:12;20.95;;;11.52;;
77518;SDS011;66629;47.346;19.038;2023-03-20T03:04:54;19.80;;;12.18;;
77518;SDS011;66629;47.346;19.038;2023-03-20T03:07:23;18.17;;;11.85;;
77518;SDS011;66629;47.346;19.038;2023-03-20T03:09:52;18.60;;;11.70;;
77518;SDS011;66629;47.346;19.038;2023-03-20T03:12:24;20.20;;;11.32;;
77518;SDS011;66629;47.346;19.038;2023-03-20T03:14:56;18.90;;;12.13;;
77518;SDS011;66629;47.346;19.038;2023-03-20T03:17:28;19.10;;;11.93;;
77518;SDS011;66629;47.346;19.038;2023-03-20T03:19:58;16.80;;;12.00;;
77518;SDS011;66629;47.346;19.038;2023-03-20T03:22:32;15.98;;;11.70;;
77518;SDS011;66629;47.346;19.038;2023-03-20T03:24:58;18.63;;;11.93;;
77518;SDS011;66629;47.346;19.038;2023-03-20T03:27:25;17.63;;;11.23;;
77518;SDS011;66629;47.346;19.038;2023-03-20T03:29:56;17.63;;;11.68;;
77518;SDS011;66629;47.346;19.038;2023-03-20T03:32:26;18.42;;;11.32;;
77518;SDS011;66629;47.346;19.038;2023-03-20T03:34:57;18.45;;;12.10;;
77518;SDS011;66629;47.346;19.038;2023-03-20T03:37:33;19.70;;;12.13;;
77518;SDS011;66629;47.346;19.038;2023-03-20T03:42:57;17.45;;;11.93;;
77518;SDS011;66629;47.346;19.038;2023-03-20T03:45:34;15.55;;;11.35;;
77518;SDS011;66629;47.346;19.038;2023-03-20T03:48:07;16.42;;;11.52;;
77518;SDS011;66629;47.346;19.038;2023-03-20T03:50:40;19.83;;;12.75;;
77518;SDS011;66629;47.346;19.038;2023-03-20T03:53:13;18.02;;;11.82;;
77518;SDS011;66629;47.346;19.038;2023-03-20T03:55:47;17.00;;;12.27;;
77518;SDS011;66629;47.346;19.038;2023-03-20T04:00:51;17.65;;;11.55;;
77518;SDS011;66629;47.346;19.038;2023-03-20T04:03:19;17.48;;;11.25;;
77518;SDS011;66629;47.346;19.038;2023-03-20T04:05:48;17.35;;;11.10;;
77518;SDS011;66629;47.346;19.038;2023-03-20T04:08:16;19.33;;;11.02;;
77518;SDS011;66629;47.346;19.038;2023-03-20T04:10:41;17.25;;;11.35;;
77518;SDS011;66629;47.346;19.038;2023-03-20T04:13:07;18.60;;;11.43;;
77518;SDS011;66629;47.346;19.038;2023-03-20T04:15:32;21.55;;;12.75;;
77518;SDS011;66629;47.346;19.038;2023-03-20T04:17:58;20.27;;;11.45;;
77518;SDS011;66629;47.346;19.038;2023-03-20T04:20:23;19.17;;;11.52;;
77518;SDS011;66629;47.346;19.038;2023-03-20T04:22:48;17.52;;;12.07;;
77518;SDS011;66629;47.346;19.038;2023-03-20T04:25:20;20.38;;;12.10;;
77518;SDS011;66629;47.346;19.038;2023-03-20T04:27:48;19.23;;;11.65;;
77518;SDS011;66629;47.346;19.038;2023-03-20T04:30:14;16.15;;;10.77;;
77518;SDS011;66629;47.346;19.038;2023-03-20T04:32:40;17.70;;;11.77;;
77518;SDS011;66629;47.346;19.038;2023-03-20T04:35:06;17.48;;;12.02;;
77518;SDS011;66629;47.346;19.038;2023-03-20T04:37:31;20.20;;;11.93;;
77518;SDS011;66629;47.346;19.038;2023-03-20T04:39:57;16.80;;;11.13;;
77518;SDS011;66629;47.346;19.038;2023-03-20T04:42:22;20.13;;;11.57;;
77518;SDS011;66629;47.346;19.038;2023-03-20T04:44:48;16.42;;;11.15;;
77518;SDS011;66629;47.346;19.038;2023-03-20T04:47:13;16.33;;;11.45;;
77518;SDS011;66629;47.346;19.038;2023-03-20T04:49:39;16.90;;;10.77;;
77518;SDS011;66629;47.346;19.038;2023-03-20T04:52:04;21.55;;;11.55;;
77518;SDS011;66629;47.346;19.038;2023-03-20T04:54:30;22.08;;;11.68;;
77518;SDS011;66629;47.346;19.038;2023-03-20T04:56:55;21.98;;;11.55;;
77518;SDS011;66629;47.346;19.038;2023-03-20T04:59:21;18.73;;;10.90;;
77518;SDS011;66629;47.346;19.038;2023-03-20T05:01:46;20.95;;;11.43;;
77518;SDS011;66629;47.346;19.038;2023-03-20T05:04:12;22.67;;;11.32;;
77518;SDS011;66629;47.346;19.038;2023-03-20T05:06:37;25.98;;;11.73;;
77518;SDS011;66629;47.346;19.038;2023-03-20T05:09:03;22.02;;;11.57;;
77518;SDS011;66629;47.346;19.038;2023-03-20T05:11:28;23.58;;;11.50;;
77518;SDS011;66629;47.346;19.038;2023-03-20T05:13:54;22.83;;;12.32;;
77518;SDS011;66629;47.346;19.038;2023-03-20T05:16:19;20.80;;;10.95;;
77518;SDS011;66629;47.346;19.038;2023-03-20T05:18:45;17.65;;;11.82;;
77518;SDS011;66629;47.346;19.038;2023-03-20T05:21:10;25.13;;;11.73;;
77518;SDS011;66629;47.346;19.038;2023-03-20T05:23:36;18.85;;;11.25;;
77518;SDS011;66629;47.346;19.038;2023-03-20T05:26:01;23.67;;;11.32;;
77518;SDS011;66629;47.346;19.038;2023-03-20T05:28:27;24.42;;;11.60;;
77518;SDS011;66629;47.346;19.038;2023-03-20T05:30:53;21.20;;;11.38;;
77518;SDS011;66629;47.346;19.038;2023-03-20T05:33:18;22.10;;;11.43;;
77518;SDS011;66629;47.346;19.038;2023-03-20T05:35:44;17.77;;;11.18;;
77518;SDS011;66629;47.346;19.038;2023-03-20T05:38:10;20.10;;;10.52;;
77518;SDS011;66629;47.346;19.038;2023-03-20T05:40:35;16.67;;;10.75;;
77518;SDS011;66629;47.346;19.038;2023-03-20T05:43:01;20.20;;;10.93;;
77518;SDS011;66629;47.346;19.038;2023-03-20T05:45:26;23.17;;;10.98;;
77518;SDS011;66629;47.346;19.038;2023-03-20T05:47:52;21.65;;;11.43;;
77518;SDS011;66629;47.346;19.038;2023-03-20T05:50:17;19.00;;;12.02;;
77518;SDS011;66629;47.346;19.038;2023-03-20T05:52:45;20.65;;;12.10;;
77518;SDS011;66629;47.346;19.038;2023-03-20T05:55:12;21.92;;;11.10;;
77518;SDS011;66629;47.346;19.038;2023-03-20T05:57:38;18.58;;;11.48;;
77518;SDS011;66629;47.346;19.038;2023-03-20T06:00:03;20.45;;;12.35;;
77518;SDS011;66629;47.346;19.038;2023-03-20T06:02:29;23.10;;;11.57;;
77518;SDS011;66629;47.346;19.038;2023-03-20T06:04:55;21.45;;;11.85;;
77518;SDS011;66629;47.346;19.038;2023-03-20T06:07:20;19.58;;;12.05;;
77518;SDS011;66629;47.346;19.038;2023-03-20T06:09:46;21.83;;;11.63;;
77518;SDS011;66629;47.346;19.038;2023-03-20T06:12:11;19.83;;;12.00;;
77518;SDS011;66629;47.346;19.038;2023-03-20T06:14:36;21.67;;;14.07;;
77518;SDS011;66629;47.346;19.038;2023-03-20T06:17:02;30.10;;;15.07;;
77518;SDS011;66629;47.346;19.038;2023-03-20T06:19:27;25.70;;;14.10;;
77518;SDS011;66629;47.346;19.038;2023-03-20T06:21:53;28.92;;;16.70;;
77518;SDS011;66629;47.346;19.038;2023-03-20T06:24:18;28.77;;;13.35;;
77518;SDS011;66629;47.346;19.038;2023-03-20T06:26:44;27.75;;;12.10;;
77518;SDS011;66629;47.346;19.038;2023-03-20T06:29:09;33.58;;;11.65;;
77518;SDS011;66629;47.346;19.038;2023-03-20T06:31:35;25.90;;;11.27;;
77518;SDS011;66629;47.346;19.038;2023-03-20T06:34:00;21.70;;;11.43;;
77518;SDS011;66629;47.346;19.038;2023-03-20T06:36:26;20.45;;;10.68;;
77518;SDS011;66629;47.346;19.038;2023-03-20T06:38:52;22.48;;;11.35;;
77518;SDS011;66629;47.346;19.038;2023-03-20T06:41:19;23.85;;;11.10;;
77518;SDS011;66629;47.346;19.038;2023-03-20T06:43:45;19.05;;;10.40;;
77518;SDS011;66629;47.346;19.038;2023-03-20T06:46:10;17.42;;;9.95;;
77518;SDS011;66629;47.346;19.038;2023-03-20T06:48:35;14.10;;;8.88;;
77518;SDS011;66629;47.346;19.038;2023-03-20T06:51:02;18.83;;;9.13;;
77518;SDS011;66629;47.346;19.038;2023-03-20T06:53:27;19.35;;;9.00;;
77518;SDS011;66629;47.346;19.038;2023-03-20T06:55:53;16.95;;;9.32;;
77518;SDS011;66629;47.346;19.038;2023-03-20T06:58:18;14.10;;;8.55;;
77518;SDS011;66629;47.346;19.038;2023-03-20T07:00:44;13.57;;;8.50;;
77518;SDS011;66629;47.346;19.038;2023-03-20T07:03:10;16.95;;;9.25;;
77518;SDS011;66629;47.346;19.038;2023-03-20T07:05:36;13.65;;;8.40;;
77518;SDS011;66629;47.346;19.038;2023-03-20T07:08:02;18.58;;;9.15;;
77518;SDS011;66629;47.346;19.038;2023-03-20T07:10:28;16.15;;;9.20;;
77518;SDS011;66629;47.346;19.038;2023-03-20T07:12:53;19.23;;;8.43;;
77518;SDS011;66629;47.346;19.038;2023-03-20T07:15:19;16.05;;;8.57;;
77518;SDS011;66629;47.346;19.038;2023-03-20T07:17:45;15.10;;;8.43;;
77518;SDS011;66629;47.346;19.038;2023-03-20T07:20:11;13.98;;;7.65;;
77518;SDS011;66629;47.346;19.038;2023-03-20T07:22:37;16.20;;;7.82;;
77518;SDS011;66629;47.346;19.038;2023-03-20T07:25:05;14.13;;;7.18;;
77518;SDS011;66629;47.346;19.038;2023-03-20T07:27:33;12.57;;;7.72;;
77518;SDS011;66629;47.346;19.038;2023-03-20T07:29:58;14.77;;;7.38;;
77518;SDS011;66629;47.346;19.038;2023-03-20T07:32:24;12.25;;;7.32;;
77518;SDS011;66629;47.346;19.038;2023-03-20T07:34:50;12.48;;;7.50;;
77518;SDS011;66629;47.346;19.038;2023-03-20T07:37:15;13.57;;;7.63;;
77518;SDS011;66629;47.346;19.038;2023-03-20T07:39:41;10.40;;;7.93;;
77518;SDS011;66629;47.346;19.038;2023-03-20T07:42:06;11.45;;;7.38;;
77518;SDS011;66629;47.346;19.038;2023-03-20T07:44:32;11.43;;;7.00;;
77518;SDS011;66629;47.346;19.038;2023-03-20T07:46:57;11.32;;;7.82;;
77518;SDS011;66629;47.346;19.038;2023-03-20T07:49:23;9.85;;;6.88;;
77518;SDS011;66629;47.346;19.038;2023-03-20T07:51:48;13.82;;;7.15;;
77518;SDS011;66629;47.346;19.038;2023-03-20T07:54:14;12.05;;;6.95;;
77518;SDS011;66629;47.346;19.038;2023-03-20T07:56:41;14.88;;;8.02;;
77518;SDS011;66629;47.346;19.038;2023-03-20T07:59:06;10.70;;;6.68;;
77518;SDS011;66629;47.346;19.038;2023-03-20T08:01:32;12.38;;;6.63;;
77518;SDS011;66629;47.346;19.038;2023-03-20T08:03:58;16.23;;;6.55;;
77518;SDS011;66629;47.346;19.038;2023-03-20T08:06:23;10.10;;;6.50;;
77518;SDS011;66629;47.346;19.038;2023-03-20T08:08:49;11.52;;;7.25;;
77518;SDS011;66629;47.346;19.038;2023-03-20T08:11:16;11.77;;;6.93;;
77518;SDS011;66629;47.346;19.038;2023-03-20T08:13:43;14.80;;;7.13;;
77518;SDS011;66629;47.346;19.038;2023-03-20T08:16:08;10.93;;;7.53;;
77518;SDS011;66629;47.346;19.038;2023-03-20T08:18:34;11.18;;;6.88;;
77518;SDS011;66629;47.346;19.038;2023-03-20T08:20:59;14.50;;;7.25;;
77518;SDS011;66629;47.346;19.038;2023-03-20T08:23:25;15.35;;;6.57;;
77518;SDS011;66629;47.346;19.038;2023-03-20T08:25:51;9.38;;;6.60;;
77518;SDS011;66629;47.346;19.038;2023-03-20T08:28:18;12.02;;;7.05;;
77518;SDS011;66629;47.346;19.038;2023-03-20T08:30:43;10.13;;;6.40;;
77518;SDS011;66629;47.346;19.038;2023-03-20T08:33:09;8.63;;;6.55;;
77518;SDS011;66629;47.346;19.038;2023-03-20T08:35:35;11.73;;;7.07;;
77518;SDS011;66629;47.346;19.038;2023-03-20T08:38:00;10.73;;;7.03;;
77518;SDS011;66629;47.346;19.038;2023-03-20T08:40:26;10.25;;;7.30;;
77518;SDS011;66629;47.346;19.038;2023-03-20T08:42:52;13.93;;;7.15;;
77518;SDS011;66629;47.346;19.038;2023-03-20T08:45:17;12.98;;;7.50;;
77518;SDS011;66629;47.346;19.038;2023-03-20T08:47:45;13.32;;;7.25;;
77518;SDS011;66629;47.346;19.038;2023-03-20T08:50:12;20.17;;;8.45;;
77518;SDS011;66629;47.346;19.038;2023-03-20T08:52:38;12.82;;;7.50;;
77518;SDS011;66629;47.346;19.038;2023-03-20T08:55:08;8.50;;;5.55;;
77518;SDS011;66629;47.346;19.038;2023-03-20T08:57:35;9.20;;;6.03;;
77518;SDS011;66629;47.346;19.038;2023-03-20T09:00:02;14.13;;;6.43;;
77518;SDS011;66629;47.346;19.038;2023-03-20T09:02:30;9.23;;;6.03;;
77518;SDS011;66629;47.346;19.038;2023-03-20T09:04:55;12.02;;;6.45;;
77518;SDS011;66629;47.346;19.038;2023-03-20T09:07:21;9.82;;;6.57;;
77518;SDS011;66629;47.346;19.038;2023-03-20T09:09:46;15.95;;;6.32;;
77518;SDS011;66629;47.346;19.038;2023-03-20T09:12:12;11.57;;;6.32;;
77518;SDS011;66629;47.346;19.038;2023-03-20T09:14:37;15.43;;;7.13;;
77518;SDS011;66629;47.346;19.038;2023-03-20T09:17:03;12.77;;;6.90;;
77518;SDS011;66629;47.346;19.038;2023-03-20T09:19:30;15.13;;;7.57;;
77518;SDS011;66629;47.346;19.038;2023-03-20T09:21:55;19.67;;;8.30;;
77518;SDS011;66629;47.346;19.038;2023-03-20T09:24:21;14.38;;;7.28;;
77518;SDS011;66629;47.346;19.038;2023-03-20T09:26:46;15.95;;;7.18;;
77518;SDS011;66629;47.346;19.038;2023-03-20T09:29:12;11.40;;;6.20;;
77518;SDS011;66629;47.346;19.038;2023-03-20T09:31:37;10.90;;;6.40;;
77518;SDS011;66629;47.346;19.038;2023-03-20T09:34:02;17.90;;;7.82;;
77518;SDS011;66629;47.346;19.038;2023-03-20T09:36:28;14.50;;;6.63;;
77518;SDS011;66629;47.346;19.038;2023-03-20T09:38:54;27.35;;;12.27;;
77518;SDS011;66629;47.346;19.038;2023-03-20T09:41:20;12.50;;;6.38;;
77518;SDS011;66629;47.346;19.038;2023-03-20T09:46:48;14.43;;;6.22;;
77518;SDS011;66629;47.346;19.038;2023-03-20T09:51:48;11.02;;;5.63;;
77518;SDS011;66629;47.346;19.038;2023-03-20T09:57:00;14.10;;;6.50;;
77518;SDS011;66629;47.346;19.038;2023-03-20T09:59:26;10.57;;;6.43;;
77518;SDS011;66629;47.346;19.038;2023-03-20T10:01:54;11.40;;;5.90;;
77518;SDS011;66629;47.346;19.038;2023-03-20T10:04:24;15.15;;;6.88;;
77518;SDS011;66629;47.346;19.038;2023-03-20T10:06:51;10.63;;;6.22;;
77518;SDS011;66629;47.346;19.038;2023-03-20T10:09:21;13.32;;;5.97;;
77518;SDS011;66629;47.346;19.038;2023-03-20T10:22:21;10.88;;;6.07;;
77518;SDS011;66629;47.346;19.038;2023-03-20T10:27:39;10.93;;;6.30;;
77518;SDS011;66629;47.346;19.038;2023-03-20T10:32:46;9.48;;;6.07;;
77518;SDS011;66629;47.346;19.038;2023-03-20T10:35:25;10.52;;;6.28;;
77518;SDS011;66629;47.346;19.038;2023-03-20T10:38:06;11.30;;;6.95;;
77518;SDS011;66629;47.346;19.038;2023-03-20T10:40:43;14.93;;;7.60;;
77518;SDS011;66629;47.346;19.038;2023-03-20T10:45:47;11.45;;;6.45;;
77518;SDS011;66629;47.346;19.038;2023-03-20T10:48:19;11.57;;;6.82;;
77518;SDS011;66629;47.346;19.038;2023-03-20T10:50:54;10.38;;;6.55;;
77518;SDS011;66629;47.346;19.038;2023-03-20T10:53:24;8.93;;;6.18;;
77518;SDS011;66629;47.346;19.038;2023-03-20T10:56:15;9.07;;;6.40;;
77518;SDS011;66629;47.346;19.038;2023-03-20T10:58:56;10.90;;;6.13;;
77518;SDS011;66629;47.346;19.038;2023-03-20T11:01:26;9.50;;;6.90;;
77518;SDS011;66629;47.346;19.038;2023-03-20T11:03:52;13.73;;;7.18;;
77518;SDS011;66629;47.346;19.038;2023-03-20T11:06:21;11.80;;;6.30;;
77518;SDS011;66629;47.346;19.038;2023-03-20T11:08:52;23.67;;;10.90;;
77518;SDS011;66629;47.346;19.038;2023-03-20T11:11:25;24.33;;;10.40;;
77518;SDS011;66629;47.346;19.038;2023-03-20T11:16:22;11.95;;;7.10;;
77518;SDS011;66629;47.346;19.038;2023-03-20T11:18:49;12.35;;;7.28;;
77518;SDS011;66629;47.346;19.038;2023-03-20T11:21:23;14.15;;;7.13;;
77518;SDS011;66629;47.346;19.038;2023-03-20T11:23:51;12.63;;;6.85;;
77518;SDS011;66629;47.346;19.038;2023-03-20T11:26:19;11.20;;;7.30;;
77518;SDS011;66629;47.346;19.038;2023-03-20T11:28:58;11.10;;;7.13;;
77518;SDS011;66629;47.346;19.038;2023-03-20T11:31:28;10.75;;;7.43;;
77518;SDS011;66629;47.346;19.038;2023-03-20T11:36:44;11.90;;;6.95;;
77518;SDS011;66629;47.346;19.038;2023-03-20T11:39:24;12.52;;;7.57;;
77518;SDS011;66629;47.346;19.038;2023-03-20T11:41:56;19.10;;;10.20;;
77518;SDS011;66629;47.346;19.038;2023-03-20T11:47:20;11.23;;;6.78;;
77518;SDS011;66629;47.346;19.038;2023-03-20T11:49:56;11.50;;;7.38;;
77518;SDS011;66629;47.346;19.038;2023-03-20T11:52:28;11.10;;;7.60;;
77518;SDS011;66629;47.346;19.038;2023-03-20T11:54:57;49.05;;;18.30;;
77518;SDS011;66629;47.346;19.038;2023-03-20T12:02:29;12.65;;;7.15;;
77518;SDS011;66629;47.346;19.038;2023-03-20T12:04:57;10.85;;;6.28;;
77518;SDS011;66629;47.346;19.038;2023-03-20T12:07:42;12.40;;;6.55;;
77518;SDS011;66629;47.346;19.038;2023-03-20T12:10:09;30.95;;;13.15;;
77518;SDS011;66629;47.346;19.038;2023-03-20T12:18:19;15.70;;;8.75;;
77518;SDS011;66629;47.346;19.038;2023-03-20T12:21:05;12.40;;;7.68;;
77518;SDS011;66629;47.346;19.038;2023-03-20T12:28:43;10.48;;;6.68;;
77518;SDS011;66629;47.346;19.038;2023-03-20T12:33:58;12.50;;;7.72;;
77518;SDS011;66629;47.346;19.038;2023-03-20T12:36:52;11.55;;;7.57;;
77518;SDS011;66629;47.346;19.038;2023-03-20T12:39:24;10.75;;;6.97;;
77518;SDS011;66629;47.346;19.038;2023-03-20T12:50:32;21.85;;;10.00;;
77518;SDS011;66629;47.346;19.038;2023-03-20T12:58:08;13.70;;;9.15;;
77518;SDS011;66629;47.346;19.038;2023-03-20T13:00:43;12.73;;;7.72;;
77518;SDS011;66629;47.346;19.038;2023-03-20T13:11:23;29.65;;;11.38;;
77518;SDS011;66629;47.346;19.038;2023-03-20T13:16:44;13.95;;;7.60;;
77518;SDS011;66629;47.346;19.038;2023-03-20T13:25:00;12.00;;;8.20;;
77518;SDS011;66629;47.346;19.038;2023-03-20T13:27:31;15.43;;;8.73;;
77518;SDS011;66629;47.346;19.038;2023-03-20T13:30:27;23.50;;;10.70;;
77518;SDS011;66629;47.346;19.038;2023-03-20T13:34:01;17.43;;;9.10;;
77518;SDS011;66629;47.346;19.038;2023-03-20T13:38:42;18.17;;;9.50;;
77518;SDS011;66629;47.346;19.038;2023-03-20T13:41:12;13.13;;;7.93;;
77518;SDS011;66629;47.346;19.038;2023-03-20T13:43:58;13.70;;;7.85;;
77518;SDS011;66629;47.346;19.038;2023-03-20T13:46:27;12.95;;;7.57;;
77518;SDS011;66629;47.346;19.038;2023-03-20T13:48:54;40.97;;;15.45;;
77518;SDS011;66629;47.346;19.038;2023-03-20T14:03:00;16.02;;;8.27;;
77518;SDS011;66629;47.346;19.038;2023-03-20T14:05:38;21.95;;;9.88;;
77518;SDS011;66629;47.346;19.038;2023-03-20T14:08:21;19.67;;;9.13;;
77518;SDS011;66629;47.346;19.038;2023-03-20T14:10:53;15.73;;;7.43;;
77518;SDS011;66629;47.346;19.038;2023-03-20T14:13:29;12.88;;;7.75;;
77518;SDS011;66629;47.346;19.038;2023-03-20T14:15:56;20.35;;;9.02;;
77518;SDS011;66629;47.346;19.038;2023-03-20T14:18:25;13.70;;;7.40;;
77518;SDS011;66629;47.346;19.038;2023-03-20T14:20:57;13.20;;;7.75;;
77518;SDS011;66629;47.346;19.038;2023-03-20T14:23:34;11.13;;;7.18;;
77518;SDS011;66629;47.346;19.038;2023-03-20T14:26:08;10.90;;;7.60;;
77518;SDS011;66629;47.346;19.038;2023-03-20T14:28:43;10.13;;;7.03;;
77518;SDS011;66629;47.346;19.038;2023-03-20T14:31:24;16.75;;;8.80;;
77518;SDS011;66629;47.346;19.038;2023-03-20T14:36:29;13.20;;;7.80;;
77518;SDS011;66629;47.346;19.038;2023-03-20T14:39:10;25.60;;;11.52;;
77518;SDS011;66629;47.346;19.038;2023-03-20T14:50:31;15.25;;;8.02;;
77518;SDS011;66629;47.346;19.038;2023-03-20T14:53:07;15.40;;;7.90;;
77518;SDS011;66629;47.346;19.038;2023-03-20T15:03:42;20.65;;;10.73;;
77518;SDS011;66629;47.346;19.038;2023-03-20T15:06:11;22.40;;;12.35;;
77518;SDS011;66629;47.346;19.038;2023-03-20T15:08:44;21.15;;;11.02;;
77518;SDS011;66629;47.346;19.038;2023-03-20T15:11:13;23.77;;;10.77;;
77518;SDS011;66629;47.346;19.038;2023-03-20T15:13:39;23.48;;;12.05;;
77518;SDS011;66629;47.346;19.038;2023-03-20T15:16:07;32.78;;;14.90;;
77518;SDS011;66629;47.346;19.038;2023-03-20T15:18:38;28.05;;;12.90;;
77518;SDS011;66629;47.346;19.038;2023-03-20T15:21:19;29.80;;;12.30;;
77518;SDS011;66629;47.346;19.038;2023-03-20T15:23:50;36.05;;;14.73;;
77518;SDS011;66629;47.346;19.038;2023-03-20T15:26:17;32.80;;;13.00;;
77518;SDS011;66629;47.346;19.038;2023-03-20T15:28:44;41.25;;;15.73;;
77518;SDS011;66629;47.346;19.038;2023-03-20T15:31:24;18.20;;;10.10;;
77518;SDS011;66629;47.346;19.038;2023-03-20T15:33:51;21.73;;;9.88;;
77518;SDS011;66629;47.346;19.038;2023-03-20T15:36:18;39.95;;;15.10;;
77518;SDS011;66629;47.346;19.038;2023-03-20T15:38:46;28.40;;;11.55;;
77518;SDS011;66629;47.346;19.038;2023-03-20T15:41:25;30.85;;;13.60;;
77518;SDS011;66629;47.346;19.038;2023-03-20T15:44:02;45.03;;;17.95;;
77518;SDS011;66629;47.346;19.038;2023-03-20T15:46:39;22.20;;;11.43;;
77518;SDS011;66629;47.346;19.038;2023-03-20T15:49:05;23.73;;;10.13;;
77518;SDS011;66629;47.346;19.038;2023-03-20T15:51:31;21.33;;;10.80;;
77518;SDS011;66629;47.346;19.038;2023-03-20T15:53:59;17.80;;;9.00;;
77518;SDS011;66629;47.346;19.038;2023-03-20T15:56:26;14.55;;;8.48;;
77518;SDS011;66629;47.346;19.038;2023-03-20T15:58:52;14.18;;;8.75;;
77518;SDS011;66629;47.346;19.038;2023-03-20T16:01:30;16.77;;;9.00;;
77518;SDS011;66629;47.346;19.038;2023-03-20T16:03:56;22.25;;;10.35;;
77518;SDS011;66629;47.346;19.038;2023-03-20T16:06:23;35.40;;;14.60;;
77518;SDS011;66629;47.346;19.038;2023-03-20T16:08:56;22.40;;;11.15;;
77518;SDS011;66629;47.346;19.038;2023-03-20T16:11:38;27.80;;;13.52;;
77518;SDS011;66629;47.346;19.038;2023-03-20T16:14:08;21.38;;;10.70;;
77518;SDS011;66629;47.346;19.038;2023-03-20T16:16:37;23.15;;;10.38;;
77518;SDS011;66629;47.346;19.038;2023-03-20T16:19:04;18.27;;;10.38;;
77518;SDS011;66629;47.346;19.038;2023-03-20T16:21:35;21.85;;;11.23;;
77518;SDS011;66629;47.346;19.038;2023-03-20T16:24:04;17.05;;;10.25;;
77518;SDS011;66629;47.346;19.038;2023-03-20T16:26:42;59.13;;;22.83;;
77518;SDS011;66629;47.346;19.038;2023-03-20T16:29:10;42.25;;;17.63;;
77518;SDS011;66629;47.346;19.038;2023-03-20T16:31:40;44.40;;;18.92;;
77518;SDS011;66629;47.346;19.038;2023-03-20T16:34:24;33.13;;;16.58;;
77518;SDS011;66629;47.346;19.038;2023-03-20T16:36:57;52.83;;;20.55;;
77518;SDS011;66629;47.346;19.038;2023-03-20T16:39:26;42.67;;;16.42;;
77518;SDS011;66629;47.346;19.038;2023-03-20T16:42:01;18.48;;;11.40;;
77518;SDS011;66629;47.346;19.038;2023-03-20T16:44:34;43.75;;;18.15;;
77518;SDS011;66629;47.346;19.038;2023-03-20T16:52:10;49.55;;;21.33;;
77518;SDS011;66629;47.346;19.038;2023-03-20T16:54:38;30.52;;;14.45;;
77518;SDS011;66629;47.346;19.038;2023-03-20T16:57:14;26.05;;;13.50;;
77518;SDS011;66629;47.346;19.038;2023-03-20T16:59:42;45.80;;;19.65;;